createdAt,value
2018-05-09T00:01:33.437Z,69.54
2018-05-09T00:04:36.760Z,69.70
2018-05-09T00:07:40.097Z,69.72
2018-05-09T00:10:43.409Z,69.61
2018-05-09T00:13:46.741Z,69.63
2018-05-09T00:16:50.045Z,69.64
2018-05-09T00:19:54.124Z,69.64
2018-05-09T00:22:57.424Z,69.83
2018-05-09T00:26:00.748Z,70.08
2018-05-09T00:29:04.049Z,70.21
2018-05-09T00:32:07.367Z,70.29
2018-05-09T00:35:10.681Z,70.32
2018-05-09T00:38:14.425Z,70.47
2018-05-09T00:41:17.746Z,70.49
2018-05-09T00:44:21.816Z,70.70
2018-05-09T00:47:25.132Z,70.75
2018-05-09T00:50:28.439Z,70.80
2018-05-09T00:53:31.770Z,70.89
2018-05-09T00:56:35.077Z,71.09
2018-05-09T00:59:38.397Z,71.13
2018-05-09T01:02:41.713Z,71.13
2018-05-09T01:05:45.013Z,71.20
2018-05-09T01:08:48.341Z,71.23
2018-05-09T01:11:52.418Z,71.14
2018-05-09T01:14:55.733Z,71.17
2018-05-09T01:17:59.043Z,71.26
2018-05-09T01:21:03.138Z,71.16
2018-05-09T01:24:06.458Z,71.44
2018-05-09T01:27:10.618Z,71.46
2018-05-09T01:30:14.634Z,71.51
2018-05-09T01:33:17.958Z,71.70
2018-05-09T01:36:21.257Z,71.90
2018-05-09T01:39:24.568Z,71.88
2018-05-09T01:42:27.865Z,71.98
2018-05-09T01:45:31.180Z,72.25
2018-05-09T01:48:35.245Z,72.23
2018-05-09T01:51:38.562Z,72.37
2018-05-09T01:54:41.881Z,72.58
2018-05-09T01:57:45.952Z,72.64
2018-05-09T02:00:49.264Z,73.00
2018-05-09T02:03:52.571Z,72.97
2018-05-09T02:06:55.882Z,73.42
2018-05-09T02:09:59.941Z,73.57
2018-05-09T02:13:03.261Z,73.73
2018-05-09T02:16:06.594Z,73.73
2018-05-09T02:19:10.660Z,73.93
2018-05-09T02:22:13.981Z,74.07
2018-05-09T02:25:17.309Z,74.21
2018-05-09T02:28:20.619Z,74.51
2018-05-09T02:31:23.933Z,74.60
2018-05-09T02:34:27.238Z,74.86
2018-05-09T02:37:30.562Z,75.04
2018-05-09T02:40:33.882Z,75.39
2018-05-09T02:43:37.961Z,75.54
2018-05-09T02:46:41.289Z,75.60
2018-05-09T02:49:45.378Z,75.78
2018-05-09T02:52:48.697Z,75.95
2018-05-09T02:55:52.783Z,76.47
2018-05-09T02:58:56.106Z,76.65
2018-05-09T03:02:00.181Z,76.89
2018-05-09T03:05:03.500Z,77.10
2018-05-09T03:08:06.835Z,77.33
2018-05-09T03:11:10.141Z,77.37
2018-05-09T03:14:13.456Z,77.46
2018-05-09T03:17:16.757Z,77.54
2018-05-09T03:20:20.124Z,77.52
2018-05-09T03:23:23.421Z,77.91
2018-05-09T03:26:26.741Z,78.07
2018-05-09T03:29:30.069Z,78.03
2018-05-09T03:32:33.372Z,78.05
2018-05-09T03:35:36.689Z,77.97
2018-05-09T03:38:40.756Z,78.26
2018-05-09T03:41:44.079Z,78.31
2018-05-09T03:44:47.400Z,78.22
2018-05-09T03:47:51.477Z,78.43
2018-05-09T03:50:54.815Z,78.30
2018-05-09T03:53:58.121Z,78.46
2018-05-09T03:57:01.523Z,78.35
2018-05-09T04:00:04.749Z,78.24
2018-05-09T04:03:25.537Z,78.27
2018-05-09T04:06:46.461Z,78.52
2018-05-09T04:09:57.110Z,78.72
2018-05-09T04:13:00.425Z,78.69
2018-05-09T04:16:03.744Z,78.81
2018-05-09T04:19:07.062Z,78.90
2018-05-09T04:22:10.526Z,78.76
2018-05-09T04:25:13.837Z,78.58
2018-05-09T04:28:17.216Z,78.67
2018-05-09T04:31:21.238Z,78.58
2018-05-09T04:34:24.565Z,78.43
2018-05-09T04:37:28.641Z,78.31
2018-05-09T04:40:31.957Z,78.02
2018-05-09T04:43:35.263Z,77.99
2018-05-09T04:46:38.593Z,77.85
2018-05-09T04:49:41.889Z,77.51
2018-05-09T04:52:45.217Z,77.47
2018-05-09T04:55:48.562Z,77.47
2018-05-09T04:58:52.645Z,76.99
2018-05-09T05:01:55.967Z,76.88
2018-05-09T05:04:59.273Z,77.13
2018-05-09T05:08:03.365Z,76.57
2018-05-09T05:11:06.677Z,76.27
2018-05-09T05:14:10.852Z,75.95
2018-05-09T05:17:14.093Z,76.05
2018-05-09T05:20:17.412Z,75.81
2018-05-09T05:23:20.708Z,75.58
2018-05-09T05:26:24.021Z,75.82
2018-05-09T05:29:27.316Z,75.85
2018-05-09T05:32:30.634Z,75.19
2018-05-09T05:35:33.942Z,74.83
2018-05-09T05:38:37.261Z,73.63
2018-05-09T05:41:40.553Z,72.90
2018-05-09T05:44:43.876Z,71.76
2018-05-09T05:47:47.201Z,71.96
2018-05-09T05:50:50.504Z,70.48
2018-05-09T05:53:53.831Z,70.97
2018-05-09T05:56:57.129Z,71.34
2018-05-09T06:00:00.445Z,69.50
2018-05-09T06:03:04.533Z,69.90
2018-05-09T06:06:07.838Z,68.75
2018-05-09T06:09:11.157Z,68.85
2018-05-09T06:12:15.229Z,67.52
2018-05-09T06:15:18.549Z,67.24
2018-05-09T06:18:21.865Z,66.63
2018-05-09T06:21:25.933Z,66.17
2018-05-09T06:24:29.245Z,65.84
2018-05-09T06:27:32.560Z,65.61
2018-05-09T06:30:35.877Z,64.31
2018-05-09T06:33:39.201Z,64.71
2018-05-09T06:36:42.496Z,65.43
2018-05-09T06:39:45.819Z,64.42
2018-05-09T06:42:49.125Z,64.04
2018-05-09T06:45:52.449Z,62.87
2018-05-09T06:48:56.513Z,63.34
2018-05-09T06:51:59.832Z,63.13
2018-05-09T06:55:03.138Z,62.33
2018-05-09T06:58:06.462Z,61.82
2018-05-09T07:01:10.549Z,60.91
2018-05-09T07:04:13.845Z,61.22
2018-05-09T07:07:17.193Z,59.87
2018-05-09T07:10:20.565Z,59.31
2018-05-09T07:13:24.642Z,58.83
2018-05-09T07:16:27.944Z,58.83
2018-05-09T07:19:31.261Z,58.59
2018-05-09T07:22:35.344Z,59.23
2018-05-09T07:25:38.670Z,58.49
2018-05-09T07:28:42.741Z,58.46
2018-05-09T07:31:46.068Z,57.09
2018-05-09T07:34:49.385Z,56.67
2018-05-09T07:37:53.449Z,55.44
2018-05-09T07:40:56.769Z,56.29
2018-05-09T07:44:00.077Z,54.81
2018-05-09T07:47:03.394Z,54.94
2018-05-09T07:50:07.462Z,55.29
2018-05-09T07:53:10.773Z,53.55
2018-05-09T07:56:14.085Z,53.83
2018-05-09T07:59:18.162Z,53.44
2018-05-09T08:02:21.477Z,52.29
2018-05-09T08:05:24.797Z,53.79
2018-05-09T08:08:28.109Z,52.88
2018-05-09T08:11:31.435Z,51.14
2018-05-09T08:14:34.729Z,50.72
2018-05-09T08:17:38.053Z,51.37
2018-05-09T08:20:41.357Z,52.00
2018-05-09T08:23:44.722Z,50.32
2018-05-09T08:26:48.765Z,47.87
2018-05-09T08:29:52.069Z,48.33
2018-05-09T08:32:55.385Z,48.33
2018-05-09T08:35:58.701Z,46.56
2018-05-09T08:39:02.001Z,48.93
2018-05-09T08:42:05.317Z,47.77
2018-05-09T08:45:08.629Z,47.43
2018-05-09T08:48:11.956Z,47.78
2018-05-09T08:51:15.266Z,47.75
2018-05-09T08:54:19.357Z,47.92
2018-05-09T08:57:22.664Z,45.19
2018-05-09T09:00:25.981Z,47.62
2018-05-09T09:03:30.049Z,45.81
2018-05-09T09:06:33.487Z,45.71
2018-05-09T09:09:37.463Z,46.41
2018-05-09T09:12:40.778Z,46.51
2018-05-09T09:15:44.138Z,46.22
2018-05-09T09:18:47.457Z,45.80
2018-05-09T09:21:50.757Z,44.35
2018-05-09T09:24:54.069Z,42.57
2018-05-09T09:27:57.398Z,43.97
2018-05-09T09:31:01.130Z,43.69
2018-05-09T09:34:04.740Z,42.85
2018-05-09T09:37:08.057Z,40.83
2018-05-09T09:40:11.389Z,42.82
2018-05-09T09:43:15.457Z,42.70
2018-05-09T09:46:18.796Z,42.29
2018-05-09T09:49:22.861Z,42.40
2018-05-09T09:52:26.186Z,40.71
2018-05-09T09:55:29.490Z,41.14
2018-05-09T09:58:33.576Z,44.28
2018-05-09T10:01:36.972Z,42.27
2018-05-09T10:04:40.213Z,42.08
2018-05-09T10:07:44.293Z,44.24
2018-05-09T10:10:47.613Z,42.78
2018-05-09T10:13:51.687Z,43.83
2018-05-09T10:16:55.025Z,41.38
2018-05-09T10:19:59.097Z,41.41
2018-05-09T10:23:02.429Z,42.42
2018-05-09T10:26:05.745Z,41.87
2018-05-09T10:29:09.824Z,40.43
2018-05-09T10:32:13.144Z,41.43
2018-05-09T10:35:16.450Z,40.97
2018-05-09T10:38:20.545Z,39.99
2018-05-09T10:41:23.857Z,40.84
2018-05-09T10:44:27.937Z,40.58
2018-05-09T10:47:31.306Z,40.90
2018-05-09T10:50:35.339Z,41.32
2018-05-09T10:53:38.653Z,42.46
2018-05-09T10:56:41.965Z,41.78
2018-05-09T10:59:46.028Z,41.39
2018-05-09T11:02:49.379Z,39.21
2018-05-09T11:05:53.446Z,39.78
2018-05-09T11:08:56.767Z,40.39
2018-05-09T11:12:00.113Z,39.79
2018-05-09T11:15:03.426Z,39.15
2018-05-09T11:18:06.749Z,39.47
2018-05-09T11:21:10.057Z,39.11
2018-05-09T11:24:13.385Z,40.23
2018-05-09T11:27:17.449Z,39.37
2018-05-09T11:30:20.789Z,39.59
2018-05-09T11:33:24.856Z,39.59
2018-05-09T11:36:28.178Z,39.19
2018-05-09T11:39:31.497Z,40.67
2018-05-09T11:42:35.582Z,39.88
2018-05-09T11:45:38.917Z,39.32
2018-05-09T11:48:42.221Z,38.99
2018-05-09T11:51:45.545Z,41.12
2018-05-09T11:54:48.866Z,41.08
2018-05-09T11:57:52.185Z,40.17
2018-05-09T12:00:55.486Z,41.17
2018-05-09T12:03:59.598Z,39.78
2018-05-09T12:07:03.661Z,40.82
2018-05-09T12:10:06.981Z,40.65
2018-05-09T12:13:10.324Z,40.65
2018-05-09T12:16:14.394Z,41.63
2018-05-09T12:19:17.715Z,42.07
2018-05-09T12:22:21.021Z,40.96
2018-05-09T12:25:25.109Z,40.51
2018-05-09T12:28:28.437Z,41.53
2018-05-09T12:31:32.505Z,40.56
2018-05-09T12:34:35.859Z,40.55
2018-05-09T12:37:39.905Z,39.64
2018-05-09T12:40:44.033Z,41.75
2018-05-09T12:43:47.340Z,40.03
2018-05-09T12:46:50.666Z,40.96
2018-05-09T12:49:54.732Z,41.13
2018-05-09T12:52:58.078Z,40.14
2018-05-09T12:56:02.145Z,40.78
2018-05-09T12:59:05.457Z,39.97
2018-05-09T13:02:08.779Z,41.09
2018-05-09T13:05:12.857Z,41.79
2018-05-09T13:08:16.173Z,40.78
2018-05-09T13:11:19.477Z,42.64
2018-05-09T13:14:22.799Z,41.29
2018-05-09T13:17:26.105Z,41.80
2018-05-09T13:20:29.417Z,42.04
2018-05-09T13:23:32.719Z,42.62
2018-05-09T13:26:36.037Z,42.47
2018-05-09T13:29:39.349Z,41.65
2018-05-09T13:32:42.674Z,41.60
2018-05-09T13:35:46.754Z,41.69
2018-05-09T13:38:50.081Z,43.45
2018-05-09T13:41:54.165Z,42.16
2018-05-09T13:44:57.474Z,41.69
2018-05-09T13:48:00.789Z,42.22
2018-05-09T13:51:04.094Z,41.58
2018-05-09T13:54:07.417Z,41.78
2018-05-09T13:57:10.742Z,41.22
2018-05-09T14:00:14.061Z,41.54
2018-05-09T14:03:17.372Z,41.87
2018-05-09T14:06:21.457Z,42.29
2018-05-09T14:09:24.758Z,41.30
2018-05-09T14:12:28.105Z,41.01
2018-05-09T14:15:31.486Z,41.02
2018-05-09T14:18:34.737Z,41.72
2018-05-09T14:21:38.071Z,43.47
2018-05-09T14:24:42.231Z,42.42
2018-05-09T14:27:45.683Z,42.41
2018-05-09T14:30:49.770Z,42.26
2018-05-09T14:33:53.249Z,41.29
2018-05-09T14:36:56.574Z,41.41
2018-05-09T14:39:59.957Z,42.21
2018-05-09T14:43:03.327Z,41.05
2018-05-09T14:46:06.668Z,40.98
2018-05-09T14:49:10.028Z,41.02
2018-05-09T14:52:13.392Z,40.65
2018-05-09T14:55:16.779Z,41.13
2018-05-09T14:58:20.126Z,41.73
2018-05-09T15:01:23.469Z,41.26
2018-05-09T15:04:26.799Z,41.15
2018-05-09T15:07:30.097Z,40.76
2018-05-09T15:10:33.413Z,41.00
2018-05-09T15:13:37.181Z,40.38
2018-05-09T15:16:40.489Z,39.97
2018-05-09T15:19:43.879Z,39.94
2018-05-09T15:22:47.185Z,39.73
2018-05-09T15:25:50.507Z,39.74
2018-05-09T15:28:53.804Z,39.83
2018-05-09T15:31:57.125Z,39.40
2018-05-09T15:35:00.425Z,39.37
2018-05-09T15:38:03.752Z,38.43
2018-05-09T15:41:07.106Z,38.87
2018-05-09T15:44:10.437Z,39.04
2018-05-09T15:47:14.512Z,38.45
2018-05-09T15:50:17.854Z,38.59
2018-05-09T15:53:21.165Z,39.27
2018-05-09T15:56:24.464Z,38.29
2018-05-09T15:59:27.789Z,38.52
2018-05-09T16:02:31.137Z,39.22
2018-05-09T16:05:35.205Z,39.51
2018-05-09T16:08:38.529Z,39.98
2018-05-09T16:11:41.860Z,40.30
2018-05-09T16:14:45.184Z,41.09
2018-05-09T16:17:48.500Z,42.02
2018-05-09T16:20:51.813Z,42.68
2018-05-09T16:23:55.137Z,43.97
2018-05-09T16:26:59.209Z,45.25
2018-05-09T16:30:02.561Z,45.88
2018-05-09T16:33:05.874Z,47.16
2018-05-09T16:36:09.273Z,47.27
2018-05-09T16:39:12.522Z,47.07
2018-05-09T16:42:16.600Z,47.90
2018-05-09T16:45:19.922Z,48.33
2018-05-09T16:48:23.246Z,49.06
2018-05-09T16:51:26.565Z,49.81
2018-05-09T16:54:29.878Z,49.76
2018-05-09T16:57:33.244Z,49.98
2018-05-09T17:00:38.117Z,49.80
2018-05-09T17:03:41.443Z,49.95
2018-05-09T17:06:44.761Z,50.51
2018-05-09T17:09:48.849Z,50.73
2018-05-09T17:12:52.193Z,50.95
2018-05-09T17:15:55.494Z,50.63
2018-05-09T17:18:58.824Z,50.88
2018-05-09T17:22:25.310Z,50.55
2018-05-09T17:25:28.642Z,50.90
2018-05-09T17:28:31.970Z,50.95
2018-05-09T17:31:35.317Z,50.08
2018-05-09T17:34:38.629Z,50.68
2018-05-09T17:37:42.727Z,50.50
2018-05-09T17:40:46.052Z,50.45
2018-05-09T17:43:49.361Z,50.61
2018-05-09T17:46:52.689Z,50.35
2018-05-09T17:49:56.786Z,50.31
2018-05-09T17:53:00.114Z,50.06
2018-05-09T17:56:03.422Z,50.27
2018-05-09T17:59:06.741Z,50.42
2018-05-09T18:02:10.045Z,50.53
2018-05-09T18:05:13.360Z,51.36
2018-05-09T18:08:16.672Z,51.39
2018-05-09T18:11:20.001Z,51.20
2018-05-09T18:14:23.321Z,51.50
2018-05-09T18:17:26.632Z,52.05
2018-05-09T18:20:29.959Z,52.32
2018-05-09T18:23:33.285Z,53.22
2018-05-09T18:26:36.588Z,53.25
2018-05-09T18:29:39.911Z,53.35
2018-05-09T18:32:43.249Z,53.55
2018-05-09T18:35:46.633Z,53.83
2018-05-09T18:38:49.947Z,55.07
2018-05-09T18:41:54.041Z,55.56
2018-05-09T18:44:57.349Z,56.15
2018-05-09T18:48:00.669Z,56.69
2018-05-09T18:51:04.745Z,57.23
2018-05-09T18:54:08.148Z,57.65
2018-05-09T18:57:11.410Z,58.27
2018-05-09T19:00:14.721Z,58.71
2018-05-09T19:03:18.051Z,58.68
2018-05-09T19:06:21.429Z,58.82
2018-05-09T19:09:24.730Z,59.19
2018-05-09T19:12:28.045Z,59.32
2018-05-09T19:15:32.128Z,59.61
2018-05-09T19:18:35.433Z,59.94
2018-05-09T19:21:38.760Z,60.06
2018-05-09T19:24:42.841Z,60.18
2018-05-09T19:27:46.183Z,60.29
2018-05-09T19:30:49.489Z,60.12
2018-05-09T19:33:52.815Z,60.37
2018-05-09T19:36:56.152Z,60.30
2018-05-09T19:40:00.224Z,60.24
2018-05-09T19:43:03.545Z,60.32
2018-05-09T19:46:06.845Z,60.42
2018-05-09T19:49:10.164Z,60.56
2018-05-09T19:52:14.260Z,60.63
2018-05-09T19:55:17.587Z,60.67
2018-05-09T19:58:20.909Z,61.11
2018-05-09T20:01:24.973Z,61.17
2018-05-09T20:04:28.317Z,61.36
2018-05-09T20:07:31.608Z,61.63
2018-05-09T20:10:34.938Z,62.13
2018-05-09T20:13:38.237Z,62.33
2018-05-09T20:16:41.558Z,62.48
2018-05-09T20:19:44.866Z,62.88
2018-05-09T20:22:48.955Z,63.01
2018-05-09T20:25:52.261Z,63.47
2018-05-09T20:29:07.179Z,63.56
2018-05-09T20:32:29.946Z,63.72
2018-05-09T20:35:33.436Z,63.99
2018-05-09T20:38:36.741Z,64.05
2018-05-09T20:41:40.058Z,64.25
2018-05-09T20:44:43.381Z,64.42
2018-05-09T20:47:46.769Z,64.59
2018-05-09T20:50:50.193Z,64.88
2018-05-09T20:53:54.262Z,64.86
2018-05-09T20:56:57.578Z,64.96
2018-05-09T21:00:00.917Z,65.24
2018-05-09T21:03:04.226Z,65.41
2018-05-09T21:06:07.548Z,65.59
2018-05-09T21:09:10.889Z,65.66
2018-05-09T21:12:14.983Z,65.76
2018-05-09T21:15:18.354Z,66.05
2018-05-09T21:18:22.409Z,66.15
2018-05-09T21:21:26.477Z,66.42
2018-05-09T21:24:29.790Z,66.75
2018-05-09T21:27:33.099Z,67.04
2018-05-09T21:30:36.417Z,67.19
2018-05-09T21:33:40.489Z,67.28
2018-05-09T21:36:43.809Z,67.83
2018-05-09T21:39:47.109Z,67.60
2018-05-09T21:42:50.425Z,67.53
2018-05-09T21:45:53.751Z,67.83
2018-05-09T21:48:57.817Z,68.57
2018-05-09T21:52:01.141Z,68.77
2018-05-09T21:55:04.453Z,69.00
2018-05-09T21:58:07.770Z,69.40
2018-05-09T22:01:11.133Z,69.85
2018-05-09T22:04:14.445Z,70.19
2018-05-09T22:07:17.817Z,70.39
2018-05-09T22:10:21.881Z,70.54
2018-05-09T22:13:25.213Z,70.88
2018-05-09T22:16:37.920Z,71.06
2018-05-09T22:19:41.269Z,71.30
2018-05-09T22:22:44.626Z,71.67
2018-05-09T22:25:48.697Z,71.63
2018-05-09T22:28:52.078Z,71.78
2018-05-09T22:31:55.402Z,72.02
2018-05-09T22:34:58.749Z,72.15
2018-05-09T22:38:02.189Z,72.49
2018-05-09T22:41:05.545Z,72.60
2018-05-09T22:44:08.866Z,72.83
2018-05-09T22:47:12.184Z,72.94
2018-05-09T22:50:15.509Z,73.20
2018-05-09T22:53:18.813Z,73.33
2018-05-09T22:56:22.141Z,73.46
2018-05-09T22:59:25.458Z,73.54
2018-05-09T23:02:28.814Z,73.61
2018-05-09T23:05:32.881Z,73.73
2018-05-09T23:08:36.209Z,73.76
2018-05-09T23:11:39.510Z,73.85
2018-05-09T23:14:43.599Z,74.09
2018-05-09T23:17:47.051Z,74.10
2018-05-09T23:20:50.390Z,74.20
2018-05-09T23:23:53.821Z,74.31
2018-05-09T23:26:57.138Z,74.18
2018-05-09T23:30:00.454Z,74.31
2018-05-09T23:33:03.818Z,74.29
2018-05-09T23:36:07.929Z,74.50
2018-05-09T23:39:12.017Z,74.39
2018-05-09T23:42:15.466Z,74.25
2018-05-09T23:45:18.845Z,74.43
2018-05-09T23:48:22.920Z,74.56
2018-05-09T23:51:26.289Z,74.74
2018-05-09T23:54:29.643Z,74.78
2018-05-09T23:57:32.955Z,74.78
